This is the latest recevied weather packets stored in our database for station/object K3HW. If no packets are shown the sender has not sent any weather packets the latest 10 day(s).
| Time | Temp. | Humidity | Pressure | Rain* | Wind** | Luminosity | Snow |
|---|---|---|---|---|---|---|---|
| 1778240796 | 9.44° C | 71% | 1016.9 hPa | 0 mm | - | 30 W/m² | - |
| 1778240491 | 9.44° C | 72% | 1017.1 hPa | 0 mm | - | 28 W/m² | - |
| 1778240189 | 10° C | 70% | 1017.1 hPa | 0 mm | - | 27 W/m² | - |
| 1778239887 | 9.44° C | 73% | 1017.1 hPa | 0 mm | - | 28 W/m² | - |
| 1778239583 | 9.44° C | 73% | 1017.1 hPa | 0 mm | - | 27 W/m² | - |
| 1778239280 | 9.44° C | 75% | 1017.3 hPa | 0 mm | - | 39 W/m² | - |
| 1778238977 | 9.44° C | 76% | 1017.1 hPa | 0 mm | - | 32 W/m² | - |
| 1778238674 | 8.89° C | 78% | 1017.1 hPa | 0 mm | - | 46 W/m² | - |
| 1778238372 | 7.78° C | 82% | 1017.1 hPa | 0 mm | - | 26 W/m² | - |
| 1778238068 | 6.67° C | 85% | 1016.9 hPa | 0 mm | - | 35 W/m² | - |
| 1778237768 | 6.11° C | 86% | 1016.9 hPa | 0 mm | - | 26 W/m² | - |
| 1778237466 | 5.56° C | 87% | 1016.8 hPa | 0 mm | - | 19 W/m² | - |
| 1778237163 | 5.56° C | 87% | 1016.9 hPa | 0 mm | - | 14 W/m² | - |
| 1778236859 | 5° C | 87% | 1016.7 hPa | 0 mm | - | 13 W/m² | - |
| 1778236557 | 5° C | 87% | 1016.7 hPa | 0 mm | - | 12 W/m² | - |
| 1778236254 | 5° C | 87% | 1016.7 hPa | 0 mm | - | 10 W/m² | - |
| 1778235951 | 5° C | 87% | 1016.7 hPa | 0 mm | - | 9 W/m² | - |
| 1778235649 | 5° C | 86% | 1016.9 hPa | 0 mm | - | 7 W/m² | - |
| 1778235346 | 5° C | 86% | 1016.5 hPa | 0 mm | - | 6 W/m² | - |
| 1778235043 | 5° C | 86% | 1016.6 hPa | 0 mm | - | 4 W/m² | - |
| 1778234741 | 5° C | 85% | 1016.3 hPa | 0 mm | - | 3 W/m² | - |
| 1778234438 | 5° C | 85% | 1016.4 hPa | 0 mm | - | 2 W/m² | - |
| 1778234135 | 5° C | 85% | 1016.3 hPa | 0 mm | - | 1 W/m² | - |
| 1778233832 | 5° C | 84% | 1016.3 hPa | 0 mm | - | 1 W/m² | - |
| 1778233529 | 5° C | 84% | 1016.2 hPa | 0 mm | - | 0 W/m² | - |
* Rain latest hour (hover to see other rain measurements)
** Current wind speed in m/s (hover to see current wind gust speed)